Edinburgh, United Kingdom

8:13 PM BST op 23 juli 2016 (GMT +0100)
Edinburgh Airport | | Change Station

Hoogte 135 ft 55.95 °N, 3.35 °W | Updated 23 minutes ago

Clear
Helder
64 °F
Voelt als 64 °F
N
10
Wind Variabel Wind van ZZW

Vandaag
Hoog -- | Laag -- °F
--% Kans op neerslag
Gisteren
Hoog -- | Laag -- °F
Precip. -- inches
Druk 30.06 inches
Zicht 6.2 mijlen
Wolken
Dauwpunt 55 °F
Vochtigheid 73%
Neerslag 0.00 inches
Dikte sneeuw Niet beschikbaar.
5:02 AM 9:36 PM
Afnemende maan, 83% visible
METAR EGPH 231850Z AUTO 20009KT 9999 NCD 18/13 Q1018
Druk 30.06 inches
Zicht 6.2 mijlen
Wolken
Dauwpunt 55 °F
Vochtigheid 73%
Neerslag 0.00 inches
Dikte sneeuw Niet beschikbaar.
5:02 AM 9:36 PM
Afnemende maan, 83% visible
METAR EGPH 231850Z AUTO 20009KT 9999 NCD 18/13 Q1018

10-Day Weather Forecast

×

Almanac

Astronomie

Jul. 23, 2016 Opkomst Ondergang
Werkelijke tijd
Burgerlijke schemering
Nautische schemering
Astronomische schemering
Maan
Golflengte van het zichtbare licht
Daglengte
Tomorrow will be .
, % of the Moon is Illuminated

Extremen vandaag

Country Highs Country Lows

Community

WunderPhotos

Upload Photos

1,926,896 foto’s ge-upload!

WunderBlog® & News

Nearby

Luchtkwaliteit

  Luchtkwaliteit LK-index Verontreinigende stof
Not available.

Dikte sneeuw

Station Depth Geometrische hoogte

Aardbevingen

Stad Distance Mag. Time & Date
Minimum magnitude displayed is 2.5.

Watertemperatuur langs de kust

Plaats Temperatuur

Stations

Nabije weerstations

Locatie station Temp. Gevoelstemperatuur Dauwpunt Vochtigheid Wind Precip. Hoogte Geactualiseerd Type